Terminal Aerodrome Forecast
Issued by NWS Charleston, SC

Current Version | Previous Version | Text Only | Print | Product List | Glossary On
Versions: 1 2 3 4 5 6 7 8 9 10 11 12 13 14
738
FTUS42 KCHS 212327
TAFCHS
TAF
KCHS 212327Z 2200/2224 08009KT P6SM SCT050
     FM221500 12012G20KT P6SM BKN040
     FM221900 13014G22KT P6SM SCT020 BKN035 PROB30 2220/2224 -SHRA
      BKN030=

USA.gov is the U.S. government's official web portal to all federal, state and local government web resources and services.